createdAt,value
2019-04-04T00:02:09.337Z,6.40
2019-04-04T00:04:39.802Z,6.40
2019-04-04T00:07:10.334Z,6.30
2019-04-04T00:09:40.835Z,6.20
2019-04-04T00:12:11.294Z,6.10
2019-04-04T00:14:43.497Z,6.20
2019-04-04T00:17:13.950Z,6.20
2019-04-04T00:19:44.342Z,6.20
2019-04-04T00:22:14.854Z,6.30
2019-04-04T00:24:45.614Z,6.30
2019-04-04T00:27:16.075Z,6.40
2019-04-04T00:29:47.965Z,6.40
2019-04-04T00:32:20.670Z,6.30
2019-04-04T00:34:51.034Z,6.20
2019-04-04T00:37:21.586Z,6.10
2019-04-04T00:39:52.071Z,6.10
2019-04-04T00:42:22.629Z,6.10
2019-04-04T00:44:55.491Z,6.10
2019-04-04T00:47:25.389Z,6.10
2019-04-04T00:49:55.854Z,6.10
2019-04-04T00:52:27.322Z,6.10
2019-04-04T00:54:57.796Z,6.10
2019-04-04T00:57:28.357Z,6.00
2019-04-04T00:59:58.847Z,6.00
2019-04-04T01:02:29.726Z,6.00
2019-04-04T01:05:01.651Z,6.00
2019-04-04T01:07:33.905Z,6.00
2019-04-04T01:10:05.075Z,6.00
2019-04-04T01:12:35.771Z,6.00
2019-04-04T01:15:06.989Z,5.90
2019-04-04T01:17:37.467Z,5.90
2019-04-04T01:20:09.541Z,5.90
2019-04-04T01:22:40.073Z,5.90
2019-04-04T01:25:10.551Z,5.90
2019-04-04T01:27:41.015Z,5.90
2019-04-04T01:30:12.602Z,5.90
2019-04-04T01:32:43.227Z,5.90
2019-04-04T01:35:13.755Z,6.00
2019-04-04T01:37:44.239Z,6.00
2019-04-04T01:40:14.603Z,6.00
2019-04-04T01:42:44.855Z,5.90
2019-04-04T01:45:15.391Z,5.90
2019-04-04T01:47:45.973Z,5.90
2019-04-04T01:50:17.898Z,5.90
2019-04-04T01:52:48.191Z,5.90
2019-04-04T01:55:18.519Z,5.90
2019-04-04T01:57:48.799Z,5.80
2019-04-04T02:00:20.395Z,5.80
2019-04-04T02:02:51.929Z,5.80
2019-04-04T02:05:22.860Z,5.80
2019-04-04T02:07:53.188Z,5.80
2019-04-04T02:10:23.612Z,5.80
2019-04-04T02:12:53.919Z,5.80
2019-04-04T02:15:24.275Z,5.60
2019-04-04T02:17:55.054Z,5.60
2019-04-04T02:20:26.959Z,5.60
2019-04-04T02:22:57.551Z,5.60
2019-04-04T02:25:27.802Z,5.50
2019-04-04T02:27:58.142Z,5.50
2019-04-04T02:30:28.599Z,5.50
2019-04-04T02:33:00.513Z,5.50
2019-04-04T02:35:31.268Z,5.50
2019-04-04T02:38:01.532Z,5.50
2019-04-04T02:40:31.892Z,5.50
2019-04-04T02:43:02.765Z,5.50
2019-04-04T02:45:33.323Z,5.50
2019-04-04T02:48:05.425Z,5.40
2019-04-04T02:50:35.929Z,5.40
2019-04-04T02:53:06.563Z,5.40
2019-04-04T02:55:36.957Z,5.30
2019-04-04T02:58:07.300Z,5.30
2019-04-04T03:00:37.724Z,5.20
2019-04-04T03:03:09.373Z,5.20
2019-04-04T03:05:40.148Z,5.10
2019-04-04T03:08:10.414Z,5.20
2019-04-04T03:10:40.769Z,5.20
2019-04-04T03:13:11.235Z,5.20
2019-04-04T03:15:44.579Z,5.20
2019-04-04T03:18:13.672Z,5.20
2019-04-04T03:20:44.044Z,5.10
2019-04-04T03:23:14.312Z,5.10
2019-04-04T03:25:46.893Z,5.10
2019-04-04T03:28:16.613Z,5.00
2019-04-04T03:30:51.695Z,4.90
2019-04-04T03:33:18.941Z,4.90
2019-04-04T03:35:49.307Z,5.00
2019-04-04T03:38:19.727Z,5.00
2019-04-04T03:40:49.992Z,5.00
2019-04-04T03:43:20.323Z,5.00
2019-04-04T03:45:50.684Z,4.90
2019-04-04T03:48:22.032Z,5.10
2019-04-04T03:50:52.420Z,5.20
2019-04-04T03:53:23.416Z,5.20
2019-04-04T03:55:53.832Z,5.00
2019-04-04T03:58:27.025Z,5.00
2019-04-04T04:00:56.383Z,5.10
2019-04-04T04:03:26.801Z,5.00
2019-04-04T04:05:57.123Z,5.00
2019-04-04T04:08:27.460Z,5.10
2019-04-04T04:10:57.749Z,5.10
2019-04-04T04:13:28.041Z,5.20
2019-04-04T04:16:02.707Z,5.20
2019-04-04T04:18:30.601Z,5.20
2019-04-04T04:21:01.540Z,5.10
2019-04-04T04:23:31.840Z,5.20
2019-04-04T04:26:02.109Z,5.20
2019-04-04T04:28:32.463Z,5.20
2019-04-04T04:31:02.708Z,5.30
2019-04-04T04:33:33.085Z,5.20
2019-04-04T04:36:03.650Z,5.10
2019-04-04T04:38:33.940Z,5.00
2019-04-04T04:41:05.265Z,5.00
2019-04-04T04:43:35.675Z,5.00
2019-04-04T04:46:06.097Z,4.90
2019-04-04T04:48:36.505Z,5.00
2019-04-04T04:51:06.952Z,5.00
2019-04-04T04:53:37.496Z,5.00
2019-04-04T04:56:07.736Z,5.00
2019-04-04T04:58:38.056Z,5.10
2019-04-04T05:01:08.356Z,5.20
2019-04-04T05:03:38.820Z,5.20
2019-04-04T05:06:09.152Z,5.20
2019-04-04T05:08:41.059Z,5.10
2019-04-04T05:11:14.445Z,5.20
2019-04-04T05:13:43.955Z,5.20
2019-04-04T05:16:14.298Z,5.30
2019-04-04T05:18:47.519Z,5.20
2019-04-04T05:21:24.933Z,5.20
2019-04-04T05:23:48.743Z,5.10
2019-04-04T05:26:19.394Z,5.10
2019-04-04T05:28:49.698Z,5.00
2019-04-04T05:31:20.104Z,5.00
2019-04-04T05:33:50.421Z,5.00
2019-04-04T05:36:20.883Z,5.00
2019-04-04T05:38:51.475Z,5.10
2019-04-04T05:41:21.819Z,5.00
2019-04-04T05:43:52.104Z,5.00
2019-04-04T05:46:22.760Z,5.00
2019-04-04T05:48:53.123Z,5.10
2019-04-04T05:51:23.761Z,5.10
2019-04-04T05:53:54.084Z,5.10
2019-04-04T05:56:24.548Z,5.10
2019-04-04T05:58:55.013Z,5.10
2019-04-04T06:01:25.519Z,5.10
2019-04-04T06:03:56.007Z,5.20
2019-04-04T06:06:26.665Z,5.30
2019-04-04T06:08:57.104Z,5.40
2019-04-04T06:11:27.430Z,5.50
2019-04-04T06:13:59.048Z,5.60
2019-04-04T06:16:30.016Z,5.60
2019-04-04T06:19:00.340Z,5.60
2019-04-04T06:21:31.031Z,5.60
2019-04-04T06:24:01.342Z,5.70
2019-04-04T06:26:31.723Z,5.80
2019-04-04T06:29:02.076Z,5.80
2019-04-04T06:31:32.412Z,5.80
2019-04-04T06:34:05.667Z,5.80
2019-04-04T06:36:34.900Z,5.80
2019-04-04T06:39:07.874Z,5.80
2019-04-04T06:41:38.448Z,5.90
2019-04-04T06:44:08.866Z,5.90
2019-04-04T06:46:39.202Z,6.00
2019-04-04T06:49:09.564Z,6.10
2019-04-04T06:51:41.073Z,6.20
2019-04-04T06:54:11.379Z,6.30
2019-04-04T06:56:41.902Z,6.30
2019-04-04T06:59:12.453Z,6.20
2019-04-04T07:01:43.044Z,6.30
2019-04-04T07:04:13.541Z,6.50
2019-04-04T07:06:43.940Z,6.60
2019-04-04T07:09:14.204Z,6.60
2019-04-04T07:11:44.816Z,6.60
2019-04-04T07:14:15.136Z,6.70
2019-04-04T07:16:45.816Z,6.80
2019-04-04T07:19:16.132Z,7.00
2019-04-04T07:21:46.383Z,7.00
2019-04-04T07:24:16.648Z,7.10
2019-04-04T07:26:46.903Z,7.10
2019-04-04T07:29:17.269Z,7.20
2019-04-04T07:31:47.632Z,7.30
2019-04-04T07:34:18.099Z,7.30
2019-04-04T07:36:49.096Z,7.40
2019-04-04T07:39:20.525Z,7.40
2019-04-04T07:41:50.922Z,7.40
2019-04-04T07:44:23.233Z,7.50
2019-04-04T07:46:53.229Z,7.50
2019-04-04T07:49:23.938Z,7.40
2019-04-04T07:51:55.011Z,7.50
2019-04-04T07:54:25.436Z,7.60
2019-04-04T07:56:55.724Z,7.70
2019-04-04T07:59:25.979Z,7.70
2019-04-04T08:01:56.400Z,7.80
2019-04-04T08:04:26.890Z,7.80
2019-04-04T08:06:57.244Z,7.80
2019-04-04T08:09:27.734Z,7.70
2019-04-04T08:11:58.115Z,7.70
2019-04-04T08:14:28.712Z,7.70
2019-04-04T08:16:59.066Z,7.70
2019-04-04T08:19:29.416Z,7.70
2019-04-04T08:21:59.787Z,7.80
2019-04-04T08:24:30.136Z,7.90
2019-04-04T08:27:00.477Z,8.00
2019-04-04T08:29:30.760Z,8.10
2019-04-04T08:32:01.288Z,8.10
2019-04-04T08:34:31.696Z,8.20
2019-04-04T08:37:02.033Z,8.40
2019-04-04T08:39:32.467Z,8.40
2019-04-04T08:42:02.897Z,8.50
2019-04-04T08:44:33.424Z,8.60
2019-04-04T08:47:03.783Z,8.60
2019-04-04T08:49:34.057Z,8.70
2019-04-04T08:52:16.110Z,8.80
2019-04-04T08:54:36.556Z,8.90
2019-04-04T08:57:06.932Z,9.00
2019-04-04T08:59:37.189Z,9.00
2019-04-04T09:02:07.632Z,9.00
2019-04-04T09:04:37.972Z,9.00
2019-04-04T09:07:08.273Z,9.30
2019-04-04T09:09:38.712Z,9.50
2019-04-04T09:12:09.359Z,9.50
2019-04-04T09:14:41.216Z,9.40
2019-04-04T09:17:11.908Z,9.40
2019-04-04T09:19:42.401Z,9.40
2019-04-04T09:22:12.744Z,9.40
2019-04-04T09:24:43.007Z,9.40
2019-04-04T09:27:13.524Z,9.60
2019-04-04T09:29:43.936Z,9.70
2019-04-04T09:32:14.380Z,9.80
2019-04-04T09:34:44.688Z,9.90
2019-04-04T09:37:15.049Z,9.90
2019-04-04T09:39:45.392Z,10.00
2019-04-04T09:42:16.312Z,10.20
2019-04-04T09:44:46.908Z,10.00
2019-04-04T09:47:17.240Z,10.10
2019-04-04T09:49:47.664Z,10.30
2019-04-04T09:52:17.960Z,10.20
2019-04-04T09:54:48.288Z,10.20
2019-04-04T09:57:19.628Z,10.40
2019-04-04T09:59:49.966Z,10.60
2019-04-04T10:02:20.400Z,10.60
2019-04-04T10:04:50.776Z,10.60
2019-04-04T10:07:21.109Z,10.50
2019-04-04T10:09:51.537Z,10.50
2019-04-04T10:12:21.973Z,10.30
2019-04-04T10:14:52.312Z,10.30
2019-04-04T10:17:22.911Z,10.10
2019-04-04T10:19:53.244Z,9.90
2019-04-04T10:22:23.568Z,10.10
2019-04-04T10:24:53.902Z,10.20
2019-04-04T10:27:24.328Z,10.20
2019-04-04T10:29:55.664Z,10.20
2019-04-04T10:32:26.385Z,10.20
2019-04-04T10:34:56.760Z,10.40
2019-04-04T10:37:27.113Z,10.60
2019-04-04T10:39:57.457Z,10.60
2019-04-04T10:42:27.861Z,10.60
2019-04-04T10:44:58.242Z,10.70
2019-04-04T10:47:28.549Z,10.60
2019-04-04T10:49:58.892Z,10.60
2019-04-04T10:52:30.309Z,10.90
2019-04-04T10:55:01.619Z,11.00
2019-04-04T10:57:32.199Z,11.00
2019-04-04T11:00:03.340Z,11.00
2019-04-04T11:02:34.985Z,11.20
2019-04-04T11:05:06.361Z,11.30
2019-04-04T11:07:36.764Z,10.90
2019-04-04T11:10:07.263Z,11.10
2019-04-04T11:12:37.598Z,11.10
2019-04-04T11:15:08.037Z,11.10
2019-04-04T11:17:38.329Z,11.10
2019-04-04T11:20:08.749Z,10.90
2019-04-04T11:22:39.121Z,11.00
2019-04-04T11:25:09.564Z,11.00
2019-04-04T11:27:40.112Z,10.90
2019-04-04T11:30:12.693Z,10.90
2019-04-04T11:32:43.046Z,10.80
2019-04-04T11:35:13.492Z,10.90
2019-04-04T11:37:44.181Z,10.80
2019-04-04T11:40:14.805Z,10.70
2019-04-04T11:42:45.274Z,10.50
2019-04-04T11:45:15.796Z,10.50
2019-04-04T11:47:46.233Z,10.40
2019-04-04T11:50:16.657Z,10.40
2019-04-04T11:52:47.017Z,10.50
2019-04-04T11:55:17.310Z,10.40
2019-04-04T11:57:47.744Z,10.50
2019-04-04T12:00:24.413Z,10.40
2019-04-04T12:02:54.764Z,10.20
2019-04-04T12:05:25.342Z,10.10
2019-04-04T12:07:55.772Z,10.00
2019-04-04T12:10:26.207Z,10.00
2019-04-04T12:12:58.558Z,9.80
2019-04-04T12:15:28.661Z,9.90
2019-04-04T12:17:58.977Z,9.80
2019-04-04T12:20:29.406Z,9.70
2019-04-04T12:22:59.757Z,9.70
2019-04-04T12:25:30.076Z,9.50
2019-04-04T12:28:00.513Z,9.50
2019-04-04T12:30:31.821Z,9.50
2019-04-04T12:33:02.209Z,9.40
2019-04-04T12:35:32.902Z,9.50
2019-04-04T12:38:03.300Z,9.50
2019-04-04T12:40:33.664Z,9.50
2019-04-04T12:43:04.317Z,9.40
2019-04-04T12:45:34.729Z,9.40
2019-04-04T12:48:05.217Z,9.40
2019-04-04T12:50:35.978Z,9.50
2019-04-04T12:53:10.101Z,9.40
2019-04-04T12:55:40.421Z,9.50
2019-04-04T12:58:11.072Z,9.30
2019-04-04T13:00:41.537Z,9.30
2019-04-04T13:03:11.982Z,9.30
2019-04-04T13:05:42.646Z,9.50
2019-04-04T13:08:13.058Z,9.50
2019-04-04T13:10:43.336Z,9.60
2019-04-04T13:13:13.745Z,9.60
2019-04-04T13:15:44.082Z,9.50
2019-04-04T13:18:14.328Z,9.40
2019-04-04T13:20:44.778Z,9.30
2019-04-04T13:23:15.029Z,9.20
2019-04-04T13:25:45.389Z,9.10
2019-04-04T13:28:15.749Z,9.00
2019-04-04T13:30:46.106Z,9.10
2019-04-04T13:33:16.864Z,9.20
2019-04-04T13:35:47.329Z,9.10
2019-04-04T13:38:17.667Z,9.10
2019-04-04T13:40:48.057Z,9.30
2019-04-04T13:43:18.402Z,9.30
2019-04-04T13:45:48.862Z,9.30
2019-04-04T13:48:20.914Z,9.30
2019-04-04T13:50:51.189Z,9.30
2019-04-04T13:53:25.200Z,9.30
2019-04-04T13:55:53.573Z,9.50
2019-04-04T13:58:24.104Z,9.50
2019-04-04T14:00:54.578Z,9.40
2019-04-04T14:03:24.890Z,9.40
2019-04-04T14:05:55.203Z,9.40
2019-04-04T14:08:25.570Z,9.40
2019-04-04T14:10:58.443Z,9.30
2019-04-04T14:13:27.981Z,9.20
2019-04-04T14:15:58.648Z,9.30
2019-04-04T14:18:38.930Z,9.40
2019-04-04T14:21:03.821Z,9.50
2019-04-04T14:23:33.086Z,9.60
2019-04-04T14:26:22.582Z,9.50
2019-04-04T14:28:53.034Z,9.50
2019-04-04T14:31:23.326Z,9.50
2019-04-04T14:33:53.865Z,9.60
2019-04-04T14:36:24.151Z,9.60
2019-04-04T14:38:54.607Z,9.60
2019-04-04T14:41:25.118Z,9.50
2019-04-04T14:43:55.541Z,9.40
2019-04-04T14:46:26.022Z,9.30
2019-04-04T14:48:56.483Z,9.30
2019-04-04T14:51:26.830Z,9.20
2019-04-04T14:53:57.969Z,9.30
2019-04-04T14:56:29.172Z,9.40
2019-04-04T14:58:59.757Z,9.50
2019-04-04T15:01:30.128Z,9.40
2019-04-04T15:04:00.386Z,9.40
2019-04-04T15:06:30.825Z,9.40
2019-04-04T15:09:01.089Z,9.40
2019-04-04T15:11:33.070Z,9.40
2019-04-04T15:14:04.850Z,9.40
2019-04-04T15:16:35.290Z,9.40
2019-04-04T15:19:09.334Z,9.30
2019-04-04T15:21:39.759Z,9.30
2019-04-04T15:24:10.281Z,9.30
2019-04-04T15:26:40.846Z,9.20
2019-04-04T15:29:11.104Z,9.20
2019-04-04T15:31:41.458Z,9.30
2019-04-04T15:34:12.703Z,9.50
2019-04-04T15:36:42.960Z,9.40
2019-04-04T15:39:16.073Z,9.40
2019-04-04T15:41:46.797Z,9.50
2019-04-04T15:44:17.543Z,9.50
2019-04-04T15:47:02.918Z,9.50
2019-04-04T15:49:33.206Z,9.60
2019-04-04T15:52:06.654Z,9.60
2019-04-04T15:54:37.056Z,9.60
2019-04-04T15:57:07.470Z,9.60
2019-04-04T15:59:37.833Z,9.60
2019-04-04T16:02:08.311Z,9.50
2019-04-04T16:04:38.653Z,9.50
2019-04-04T16:07:09.231Z,9.50
2019-04-04T16:09:40.007Z,9.50
2019-04-04T16:12:10.301Z,9.50
2019-04-04T16:14:40.659Z,9.30
2019-04-04T16:17:11.101Z,9.30
2019-04-04T16:19:42.458Z,9.20
2019-04-04T16:22:12.746Z,9.20
2019-04-04T16:24:43.131Z,9.20
2019-04-04T16:27:13.600Z,9.30
2019-04-04T16:30:03.265Z,9.10
2019-04-04T16:32:34.746Z,9.00
2019-04-04T16:35:05.154Z,8.90
2019-04-04T16:37:35.567Z,8.70
2019-04-04T16:40:09.330Z,8.70
2019-04-04T16:42:38.678Z,8.80
2019-04-04T16:45:09.347Z,8.70
2019-04-04T16:47:39.763Z,8.80
2019-04-04T16:50:11.183Z,8.70
2019-04-04T16:52:41.559Z,8.60
2019-04-04T16:55:12.058Z,8.60
2019-04-04T16:57:43.540Z,8.50
2019-04-04T17:00:15.141Z,8.50
2019-04-04T17:02:45.486Z,8.40
2019-04-04T17:05:16.083Z,8.40
2019-04-04T17:07:46.434Z,8.50
2019-04-04T17:10:17.459Z,8.40
2019-04-04T17:12:47.898Z,8.30
2019-04-04T17:15:18.364Z,8.20
2019-04-04T17:17:48.733Z,8.30
2019-04-04T17:20:20.746Z,8.30
2019-04-04T17:22:51.295Z,8.40
2019-04-04T17:25:21.546Z,8.40
2019-04-04T17:27:51.983Z,8.40
2019-04-04T17:30:22.394Z,8.30
2019-04-04T17:32:52.887Z,8.20
2019-04-04T17:35:23.397Z,8.10
2019-04-04T17:37:53.958Z,8.00
2019-04-04T17:40:24.322Z,8.00
2019-04-04T17:42:54.603Z,8.00
2019-04-04T17:45:25.243Z,8.00
2019-04-04T17:47:55.788Z,8.00
2019-04-04T17:50:26.358Z,8.00
2019-04-04T17:52:57.106Z,7.90
2019-04-04T17:55:27.645Z,7.80
2019-04-04T17:57:58.119Z,7.80
2019-04-04T18:00:29.666Z,7.70
2019-04-04T18:03:00.002Z,7.70
2019-04-04T18:05:30.718Z,7.60
2019-04-04T18:08:01.159Z,7.60
2019-04-04T18:10:32.880Z,7.60
2019-04-04T18:13:03.147Z,7.60
2019-04-04T18:15:33.590Z,7.60
2019-04-04T18:18:04.810Z,7.50
2019-04-04T18:20:35.271Z,7.50
2019-04-04T18:23:05.685Z,7.50
2019-04-04T18:25:35.947Z,7.50
2019-04-04T18:28:06.287Z,7.40
2019-04-04T18:30:36.676Z,7.40
2019-04-04T18:33:07.196Z,7.20
2019-04-04T18:35:38.483Z,7.20
2019-04-04T18:38:09.073Z,7.10
2019-04-04T18:40:39.524Z,7.10
2019-04-04T18:43:09.894Z,7.10
2019-04-04T18:45:40.312Z,7.00
2019-04-04T18:48:10.814Z,7.00
2019-04-04T18:50:41.198Z,7.00
2019-04-04T18:53:11.507Z,7.00
2019-04-04T18:55:41.811Z,7.10
2019-04-04T18:58:12.255Z,7.10
2019-04-04T19:00:42.719Z,7.10
2019-04-04T19:03:13.452Z,7.00
2019-04-04T19:05:43.910Z,7.00
2019-04-04T19:08:14.362Z,7.00
2019-04-04T19:10:44.860Z,7.00
2019-04-04T19:13:15.284Z,7.00
2019-04-04T19:15:45.794Z,6.90
2019-04-04T19:18:16.200Z,7.00
2019-04-04T19:20:46.587Z,7.00
2019-04-04T19:23:17.271Z,7.00
2019-04-04T19:25:47.677Z,7.00
2019-04-04T19:28:18.040Z,6.90
2019-04-04T19:30:48.362Z,6.80
2019-04-04T19:33:18.789Z,6.80
2019-04-04T19:35:49.081Z,6.70
2019-04-04T19:38:19.521Z,6.60
2019-04-04T19:40:49.891Z,6.50
2019-04-04T19:43:20.352Z,6.40
2019-04-04T19:45:50.706Z,6.10
2019-04-04T19:48:21.129Z,6.10
2019-04-04T19:50:51.608Z,6.00
2019-04-04T19:53:22.929Z,5.90
2019-04-04T19:55:53.295Z,5.80
2019-04-04T19:58:23.665Z,5.80
2019-04-04T20:00:54.162Z,5.80
2019-04-04T20:03:24.526Z,5.70
2019-04-04T20:05:54.937Z,5.80
2019-04-04T20:08:25.318Z,5.70
2019-04-04T20:10:55.649Z,5.80
2019-04-04T20:13:31.205Z,5.80
2019-04-04T20:15:58.424Z,5.90
2019-04-04T20:18:28.969Z,5.90
2019-04-04T20:20:59.337Z,5.90
2019-04-04T20:23:29.753Z,5.80
2019-04-04T20:26:00.100Z,5.70
2019-04-04T20:28:30.525Z,5.70
2019-04-04T20:31:01.652Z,5.80
2019-04-04T20:33:32.076Z,5.90
2019-04-04T20:36:02.586Z,5.80
2019-04-04T20:38:33.708Z,5.80
2019-04-04T20:41:05.365Z,5.80
2019-04-04T20:43:43.145Z,5.60
2019-04-04T20:46:08.753Z,5.60
2019-04-04T20:48:39.282Z,5.50
2019-04-04T20:51:09.718Z,5.50
2019-04-04T20:53:40.005Z,5.50
2019-04-04T20:56:10.340Z,5.50
2019-04-04T20:58:40.685Z,5.50
2019-04-04T21:01:11.084Z,5.50
2019-04-04T21:03:41.400Z,5.40
2019-04-04T21:06:13.208Z,5.30
2019-04-04T21:08:44.470Z,5.40
2019-04-04T21:11:14.755Z,5.50
2019-04-04T21:13:56.382Z,5.60
2019-04-04T21:16:23.030Z,5.70
2019-04-04T21:18:53.442Z,5.70
2019-04-04T21:21:24.761Z,5.70
2019-04-04T21:23:55.209Z,5.80
2019-04-04T21:26:25.556Z,5.90
2019-04-04T21:28:56.137Z,5.80
2019-04-04T21:31:27.654Z,5.70
2019-04-04T21:33:58.066Z,5.70
2019-04-04T21:36:28.685Z,5.80
2019-04-04T21:38:59.049Z,5.80
2019-04-04T21:41:29.534Z,5.80
2019-04-04T21:44:08.671Z,5.80
2019-04-04T21:46:32.239Z,5.70
2019-04-04T21:49:02.514Z,5.70
2019-04-04T21:51:32.765Z,5.70
2019-04-04T21:54:03.206Z,5.70
2019-04-04T21:56:33.549Z,5.70
2019-04-04T21:59:04.257Z,5.70
2019-04-04T22:01:34.669Z,5.80
2019-04-04T22:04:05.086Z,5.70
2019-04-04T22:06:35.508Z,5.70
2019-04-04T22:09:08.841Z,5.70
2019-04-04T22:11:39.342Z,5.70
2019-04-04T22:14:21.176Z,5.60
2019-04-04T22:16:41.754Z,5.50
2019-04-04T22:19:12.185Z,5.60
2019-04-04T22:21:42.530Z,5.60
2019-04-04T22:24:13.793Z,5.60
2019-04-04T22:26:44.093Z,5.60
2019-04-04T22:29:15.078Z,5.50
2019-04-04T22:31:45.445Z,5.50
2019-04-04T22:34:15.697Z,5.60
2019-04-04T22:36:46.206Z,5.60
2019-04-04T22:39:16.489Z,5.40
2019-04-04T22:41:46.806Z,5.40
2019-04-04T22:44:17.378Z,5.40
2019-04-04T22:46:47.653Z,5.50
2019-04-04T22:49:17.934Z,5.60
2019-04-04T22:51:48.486Z,5.60
2019-04-04T22:54:18.867Z,5.60
2019-04-04T22:56:49.129Z,5.70
2019-04-04T22:59:19.520Z,5.70
2019-04-04T23:01:49.905Z,5.70
2019-04-04T23:04:20.218Z,5.70
2019-04-04T23:06:50.693Z,5.70
2019-04-04T23:09:20.949Z,5.70
2019-04-04T23:11:51.229Z,5.60
2019-04-04T23:14:21.545Z,5.70
2019-04-04T23:16:51.943Z,5.60
2019-04-04T23:19:22.179Z,5.60
2019-04-04T23:21:52.479Z,5.60
2019-04-04T23:24:22.821Z,5.60
2019-04-04T23:26:53.187Z,5.60
2019-04-04T23:29:23.626Z,5.60
2019-04-04T23:31:54.009Z,5.60
2019-04-04T23:34:24.358Z,5.50
2019-04-04T23:36:54.682Z,5.50
2019-04-04T23:39:25.118Z,5.60
2019-04-04T23:41:55.383Z,5.60
2019-04-04T23:44:25.767Z,5.70
2019-04-04T23:46:56.101Z,5.60
2019-04-04T23:49:26.734Z,5.50
2019-04-04T23:51:57.078Z,5.50
2019-04-04T23:54:27.440Z,5.40
2019-04-04T23:56:57.703Z,5.30
2019-04-04T23:59:28.322Z,5.40
